Bouzas — EAPC — position and weather

sailwx.info

Track history (hours):
 
Tides and Currents Weather Stations Pressure Air Temp Water Temp Dewpoint Dewpoint Depression Visibility Wind Speed Wind Dir Waves Ship Positions

Bouzas

Last reported at 2015-Apr-25 17:33 UTC. Time now 2015-Apr-27 15:35 UTC.
Position N 36°01' W 005°24'.

Length 142 m; draft 5.9 m.

Type: Cargo ship. MMSI: 224029000.

Date/timePositionNaut miles runAvg speedWind from/ knotsBaromVisibWave heightAir tempDewpointWater temp
2015-Apr-25 17:33N 36°01' W 005°24'11518.1
2015-Apr-25 11:10N 36°36' W 003°08'1418.8
2015-Apr-25 10:27N 36°33' W 002°51'1618.1
2015-Apr-25 09:34N 36°29' W 002°32'1818.0
2015-Apr-25 08:34N 36°28' W 002°10'2119.4
2015-Apr-25 07:30N 36°41' W 001°50'2119.3
2015-Apr-25 06:24N 36°55' W 001°30'1719.6
2015-Apr-25 05:32N 37°06' W 001°14'1918.9
2015-Apr-25 04:33N 37°18' W 000°57'1919.0
2015-Apr-25 03:33N 37°30' W 000°39'1919.0
2015-Apr-25 02:33N 37°45' W 000°24'1918.7
2015-Apr-25 01:33N 37°59' W 000°08'2319.1
2015-Apr-25 00:20N 38°20' E 000°05'5818.7
2015-Apr-24 21:15N 39°11' E 000°42'3618.3
2015-Apr-24 19:17N 39°42' E 001°05'1318.5
2015-Apr-24 18:33N 39°54' E 001°13'1918.8
2015-Apr-24 17:34N 40°10' E 001°25'1918.8
2015-Apr-24 16:33N 40°27' E 001°36'1818.4
2015-Apr-24 15:33N 40°43' E 001°48'1918.8
2015-Apr-24 14:33N 40°59' E 002°00'2317.6
2015-Apr-24 13:15N 41°20' E 002°12'5 0.6
2015-Apr-24 03:33N 41°15' E 002°12'1313.4
2015-Apr-24 02:33N 41°03' E 002°04'1313.4
2015-Apr-24 01:33N 40°51' E 001°56'1313.2
2015-Apr-24 00:33N 40°39' E 001°48'1414.0
2015-Apr-23 23:33N 40°27' E 001°39'1413.9
2015-Apr-23 22:33N 40°15' E 001°31'1313.6
2015-Apr-23 21:33N 40°03' E 001°23'1413.4
2015-Apr-23 20:33N 39°51' E 001°14'5513.7
2015-Apr-23 16:33N 39°02' E 000°41'2814.1
2015-Apr-23 14:33N 38°37' E 000°24'1714.0
2015-Apr-23 13:20N 38°23' E 000°12'1114.0
2015-Apr-23 12:32N 38°14' E 000°04'1313.6
2015-Apr-23 11:33N 38°03' W 000°05'1414.0
2015-Apr-23 10:31N 37°51' W 000°16'1313.9
2015-Apr-23 09:33N 37°40' W 000°25'1413.7
2015-Apr-23 08:33N 37°29' W 000°36'1413.9
2015-Apr-23 07:33N 37°20' W 000°49'1413.9
2015-Apr-23 06:33N 37°11' W 001°02'1513.9
2015-Apr-23 05:27N 37°01' W 001°17'19613.9
2015-Apr-22 15:16N 35°60' W 005°09'1719.7
2015-Apr-22 14:25N 35°56' W 005°29'  
2015-Apr-18 16:32N 35°60' W 005°27'1616.9
2015-Apr-18 15:33N 36°07' W 005°09'19817.7
2015-Apr-18 04:24N 37°06' W 001°14'1619.2
2015-Apr-18 03:33N 37°17' W 000°59'1919.6
2015-Apr-18 02:34N 37°29' W 000°40'1919.4
2015-Apr-18 01:34N 37°45' W 000°25'2019.6
2015-Apr-18 00:34N 38°01' W 000°11'2019.8
2015-Apr-17 23:33N 38°18' E 000°03'9819.5
2015-Apr-17 18:31N 39°43' E 001°05'1616.7
2015-Apr-17 17:34N 39°57' E 001°16'1919.5
2015-Apr-17 16:33N 40°14' E 001°28'1918.9
2015-Apr-17 15:34N 40°30' E 001°40'1818.4
2015-Apr-17 14:33N 40°47' E 001°51'1918.5
2015-Apr-17 13:33N 41°03' E 002°03'1918.5
2015-Apr-17 12:33N 41°20' E 002°14'3 0.4
2015-Apr-17 04:23N 41°22' E 002°11'7 7.8
2015-Apr-17 03:33N 41°16' E 002°13'1212.4
2015-Apr-17 02:33N 41°05' E 002°05'1211.9
2015-Apr-17 01:33N 40°54' E 001°58'1211.7
2015-Apr-17 00:33N 40°44' E 001°51'1212.3
2015-Apr-16 23:33N 40°33' E 001°44'1212.1
2015-Apr-16 22:33N 40°22' E 001°36'1212.0
2015-Apr-16 21:33N 40°12' E 001°29'1212.2
2015-Apr-16 20:33N 40°01' E 001°21'1211.5
2015-Apr-16 19:33N 39°51' E 001°14'2512.4
2015-Apr-16 17:33N 39°29' E 000°59'10413.0
2015-Apr-16 09:33N 37°59' W 000°08'1312.9
2015-Apr-16 08:33N 37°48' W 000°17'1414.1
2015-Apr-16 07:33N 37°37' W 000°28'1312.8
2015-Apr-16 06:32N 37°28' W 000°39'1313.1
2015-Apr-16 05:33N 37°19' W 000°51'1313.2
2015-Apr-16 04:32N 37°10' W 001°03'  
Track history (hours):
 
Tides and Currents Weather Stations Pressure Air Temp Water Temp Dewpoint Dewpoint Depression Visibility Wind Speed Wind Dir Waves Ship Positions

Bouzas

Last reported at 2015-Apr-25 17:33 UTC. Time now 2015-Apr-27 15:35 UTC.
Position N 36°01' W 005°24'.

Length 142 m; draft 5.9 m.

Type: Cargo ship. MMSI: 224029000.

Date/timePositionNaut miles runAvg speedWind from/ knotsBaromVisibWave heightAir tempDewpointWater temp
2015-Apr-25 17:33N 36°01' W 005°24'11518.1
2015-Apr-25 11:10N 36°36' W 003°08'1418.8
2015-Apr-25 10:27N 36°33' W 002°51'1618.1
2015-Apr-25 09:34N 36°29' W 002°32'1818.0
2015-Apr-25 08:34N 36°28' W 002°10'2119.4
2015-Apr-25 07:30N 36°41' W 001°50'2119.3
2015-Apr-25 06:24N 36°55' W 001°30'1719.6
2015-Apr-25 05:32N 37°06' W 001°14'1918.9
2015-Apr-25 04:33N 37°18' W 000°57'1919.0
2015-Apr-25 03:33N 37°30' W 000°39'1919.0
2015-Apr-25 02:33N 37°45' W 000°24'1918.7
2015-Apr-25 01:33N 37°59' W 000°08'2319.1
2015-Apr-25 00:20N 38°20' E 000°05'5818.7
2015-Apr-24 21:15N 39°11' E 000°42'3618.3
2015-Apr-24 19:17N 39°42' E 001°05'1318.5
2015-Apr-24 18:33N 39°54' E 001°13'1918.8
2015-Apr-24 17:34N 40°10' E 001°25'1918.8
2015-Apr-24 16:33N 40°27' E 001°36'1818.4
2015-Apr-24 15:33N 40°43' E 001°48'1918.8
2015-Apr-24 14:33N 40°59' E 002°00'2317.6
2015-Apr-24 13:15N 41°20' E 002°12'5 0.6
2015-Apr-24 03:33N 41°15' E 002°12'1313.4
2015-Apr-24 02:33N 41°03' E 002°04'1313.4
2015-Apr-24 01:33N 40°51' E 001°56'1313.2
2015-Apr-24 00:33N 40°39' E 001°48'1414.0
2015-Apr-23 23:33N 40°27' E 001°39'1413.9
2015-Apr-23 22:33N 40°15' E 001°31'1313.6
2015-Apr-23 21:33N 40°03' E 001°23'1413.4
2015-Apr-23 20:33N 39°51' E 001°14'5513.7
2015-Apr-23 16:33N 39°02' E 000°41'2814.1
2015-Apr-23 14:33N 38°37' E 000°24'1714.0
2015-Apr-23 13:20N 38°23' E 000°12'1114.0
2015-Apr-23 12:32N 38°14' E 000°04'1313.6
2015-Apr-23 11:33N 38°03' W 000°05'1414.0
2015-Apr-23 10:31N 37°51' W 000°16'1313.9
2015-Apr-23 09:33N 37°40' W 000°25'1413.7
2015-Apr-23 08:33N 37°29' W 000°36'1413.9
2015-Apr-23 07:33N 37°20' W 000°49'1413.9
2015-Apr-23 06:33N 37°11' W 001°02'1513.9
2015-Apr-23 05:27N 37°01' W 001°17'19613.9
2015-Apr-22 15:16N 35°60' W 005°09'1719.7
2015-Apr-22 14:25N 35°56' W 005°29'  
2015-Apr-18 16:32N 35°60' W 005°27'1616.9
2015-Apr-18 15:33N 36°07' W 005°09'19817.7
2015-Apr-18 04:24N 37°06' W 001°14'1619.2
2015-Apr-18 03:33N 37°17' W 000°59'1919.6
2015-Apr-18 02:34N 37°29' W 000°40'1919.4
2015-Apr-18 01:34N 37°45' W 000°25'2019.6
2015-Apr-18 00:34N 38°01' W 000°11'2019.8
2015-Apr-17 23:33N 38°18' E 000°03'9819.5
2015-Apr-17 18:31N 39°43' E 001°05'1616.7
2015-Apr-17 17:34N 39°57' E 001°16'1919.5
2015-Apr-17 16:33N 40°14' E 001°28'1918.9
2015-Apr-17 15:34N 40°30' E 001°40'1818.4
2015-Apr-17 14:33N 40°47' E 001°51'1918.5
2015-Apr-17 13:33N 41°03' E 002°03'1918.5
2015-Apr-17 12:33N 41°20' E 002°14'3 0.4
2015-Apr-17 04:23N 41°22' E 002°11'7 7.8
2015-Apr-17 03:33N 41°16' E 002°13'1212.4
2015-Apr-17 02:33N 41°05' E 002°05'1211.9
2015-Apr-17 01:33N 40°54' E 001°58'1211.7
2015-Apr-17 00:33N 40°44' E 001°51'1212.3
2015-Apr-16 23:33N 40°33' E 001°44'1212.1
2015-Apr-16 22:33N 40°22' E 001°36'1212.0
2015-Apr-16 21:33N 40°12' E 001°29'1212.2
2015-Apr-16 20:33N 40°01' E 001°21'1211.5
2015-Apr-16 19:33N 39°51' E 001°14'2512.4
2015-Apr-16 17:33N 39°29' E 000°59'10413.0
2015-Apr-16 09:33N 37°59' W 000°08'1312.9
2015-Apr-16 08:33N 37°48' W 000°17'1414.1
2015-Apr-16 07:33N 37°37' W 000°28'1312.8
2015-Apr-16 06:32N 37°28' W 000°39'1313.1
2015-Apr-16 05:33N 37°19' W 000°51'1313.2
2015-Apr-16 04:32N 37°10' W 001°03'  

Dump ship's entire track history